Time;durP1;ratioP1;P1;durP2;ratioP2;P2;SDS_P1;SDS_P2;PMS_P1;PMS_P2;Temp;Humidity;BMP_temperature;BMP_pressure;BME280_temperature;BME280_humidity;BME280_pressure;Samples;Min_cycle;Max_cycle;Signal;HPM_P1;HPM_P2
2022/09/11 00:00:40;;;;;;;26.30;18.33;;;16.10;99.90;;;;;;5052915;28;20531;-80
2022/09/11 00:03:06;;;;;;;26.58;17.75;;;16.10;99.90;;;;;;5036208;28;20032;-80
2022/09/11 00:05:37;;;;;;;30.15;19.33;;;16.10;99.90;;;;;;5036241;28;20025;-77
2022/09/11 00:08:04;;;;;;;24.55;18.48;;;16.00;99.90;;;;;;5036242;28;20043;-79
2022/09/11 00:10:31;;;;;;;31.98;20.60;;;16.00;99.90;;;;;;5052621;28;20066;-78
2022/09/11 00:12:57;;;;;;;27.83;20.33;;;16.00;99.90;;;;;;5019904;28;20489;-78
2022/09/11 00:15:23;;;;;;;27.83;19.45;;;16.00;99.90;;;;;;5052614;28;20025;-78
2022/09/11 00:17:48;;;;;;;28.50;19.95;;;16.00;99.90;;;;;;5035931;28;20389;-78
2022/09/11 00:20:14;;;;;;;28.02;19.52;;;15.90;99.90;;;;;;5035840;28;20029;-79
2022/09/11 00:22:40;;;;;;;25.45;18.98;;;15.90;99.90;;;;;;5052446;28;20055;-79
2022/09/11 00:25:06;;;;;;;29.65;19.65;;;15.90;99.90;;;;;;5019526;28;20064;-79
2022/09/11 00:27:32;;;;;;;27.95;18.83;;;15.90;99.90;;;;;;5019351;28;20060;-79
2022/09/11 00:29:59;;;;;;;27.23;19.50;;;15.90;99.90;;;;;;5019375;28;20033;-79
2022/09/11 00:32:24;;;;;;;29.05;18.60;;;15.90;99.90;;;;;;5035725;28;20059;-79
2022/09/11 00:34:50;;;;;;;29.50;20.35;;;15.80;99.90;;;;;;5035959;28;20064;-79
2022/09/11 00:37:15;;;;;;;25.92;19.38;;;15.80;99.90;;;;;;5035560;28;20033;-79
2022/09/11 00:39:41;;;;;;;28.60;19.30;;;15.80;99.90;;;;;;5019186;28;20021;-79
2022/09/11 00:42:09;;;;;;;28.17;20.17;;;15.80;99.90;;;;;;5019362;28;20021;-80
2022/09/11 00:44:34;;;;;;;28.15;19.60;;;15.80;99.90;;;;;;5052229;28;20101;-80
2022/09/11 00:47:04;;;;;;;23.75;18.17;;;15.80;99.90;;;;;;5052184;28;20492;-80
2022/09/11 00:49:41;;;;;;;27.27;20.08;;;15.80;99.90;;;;;;5053272;28;20032;-81
2022/09/11 00:52:18;;;;;;;27.73;20.52;;;15.80;99.90;;;;;;5053354;28;20078;-81
2022/09/11 00:54:58;;;;;;;25.25;19.38;;;15.70;99.90;;;;;;5053559;28;20017;-81
2022/09/11 00:57:29;;;;;;;30.33;20.23;;;15.70;99.90;;;;;;5054210;28;20041;-81
2022/09/11 00:59:57;;;;;;;27.38;18.83;;;15.70;99.90;;;;;;5052145;28;20029;-81
2022/09/11 01:02:28;;;;;;;31.63;19.42;;;15.70;99.90;;;;;;5035853;28;20057;-80
2022/09/11 01:04:55;;;;;;;29.33;20.50;;;15.70;99.90;;;;;;5052011;28;20457;-80
2022/09/11 01:07:23;;;;;;;34.08;21.85;;;15.70;99.90;;;;;;5053174;28;20017;-80
2022/09/11 01:09:50;;;;;;;31.00;20.75;;;15.70;99.90;;;;;;5035382;28;20032;-81
2022/09/11 01:12:40;;;;;;;31.30;20.80;;;15.70;99.90;;;;;;5035591;28;20115;-81
2022/09/11 01:15:14;;;;;;;33.40;21.15;;;15.70;99.90;;;;;;5051986;28;20029;-80
2022/09/11 01:18:02;;;;;;;29.23;20.63;;;15.60;99.90;;;;;;5051752;28;20493;-81
2022/09/11 01:20:28;;;;;;;29.35;20.48;;;15.60;99.90;;;;;;5051847;28;20029;-81
2022/09/11 01:23:27;;;;;;;31.33;20.92;;;15.60;99.90;;;;;;5051765;28;20027;-80
2022/09/11 01:26:24;;;;;;;30.17;20.02;;;15.60;99.90;;;;;;5051726;28;20140;-81
2022/09/11 01:28:59;;;;;;;27.75;19.80;;;15.60;99.90;;;;;;5051963;28;20029;-81
2022/09/11 01:31:35;;;;;;;32.13;20.15;;;15.60;99.90;;;;;;5053106;28;20075;-81
2022/09/11 01:34:22;;;;;;;27.60;18.85;;;15.50;99.90;;;;;;5052257;28;20013;-80
2022/09/11 01:36:58;;;;;;;30.17;19.55;;;15.50;99.90;;;;;;5051790;28;20028;-80
2022/09/11 01:39:32;;;;;;;29.00;19.10;;;15.50;99.90;;;;;;5064950;28;20033;-80
2022/09/11 01:42:13;;;;;;;29.90;21.00;;;15.50;99.90;;;;;;5073202;28;20028;-80
2022/09/11 01:44:52;;;;;;;33.05;21.40;;;15.50;99.90;;;;;;5072932;28;20100;-80
2022/09/11 01:47:19;;;;;;;28.25;20.42;;;15.40;99.90;;;;;;5075311;28;20021;-80
2022/09/11 01:50:04;;;;;;;30.35;20.20;;;15.40;99.90;;;;;;5058851;28;20028;-80
2022/09/11 01:52:35;;;;;;;28.02;20.38;;;15.40;99.90;;;;;;5075053;28;20452;-80
2022/09/11 01:55:14;;;;;;;27.98;19.95;;;15.40;99.90;;;;;;5066343;28;20370;-81
2022/09/11 01:57:49;;;;;;;32.75;20.58;;;15.40;99.90;;;;;;5074877;28;20040;-80
2022/09/11 02:00:15;;;;;;;30.10;21.33;;;15.30;99.90;;;;;;5074945;28;20085;-81
2022/09/11 02:02:51;;;;;;;28.70;20.80;;;15.30;99.90;;;;;;5076199;28;20021;-81
2022/09/11 02:05:25;;;;;;;27.48;19.35;;;15.30;99.90;;;;;;5074992;28;20031;-81
2022/09/11 02:08:23;;;;;;;;;;;15.30;99.90;;;;;;5075357;28;20025;-81
2022/09/11 02:10:52;;;;;;;24.83;18.92;;;15.30;99.90;;;;;;5063604;28;19911;-81
2022/09/11 02:13:38;;;;;;;27.23;18.85;;;15.20;99.90;;;;;;5076357;28;20024;-81
2022/09/11 02:16:18;;;;;;;27.50;19.42;;;15.20;99.90;;;;;;5074800;28;20396;-81
2022/09/11 02:18:56;;;;;;;29.13;19.30;;;15.10;99.90;;;;;;5076059;28;20024;-81
2022/09/11 02:21:23;;;;;;;30.33;20.75;;;15.20;99.90;;;;;;5074819;28;20027;-81
2022/09/11 02:23:49;;;;;;;30.58;20.75;;;15.20;99.90;;;;;;5074807;28;20049;-81
2022/09/11 02:26:17;;;;;;;32.08;20.27;;;15.10;99.90;;;;;;5076205;28;20043;-81
2022/09/11 02:28:43;;;;;;;29.27;20.77;;;15.10;99.90;;;;;;5074807;28;20121;-81
2022/09/11 02:31:09;;;;;;;32.22;21.65;;;15.10;99.90;;;;;;5075195;28;20043;-81
2022/09/11 02:33:36;;;;;;;27.65;19.38;;;15.10;99.90;;;;;;5057865;28;20032;-80
2022/09/11 02:36:30;;;;;;;30.13;20.38;;;15.10;99.90;;;;;;5074546;28;20032;-79
2022/09/11 02:39:15;;;;;;;28.98;19.25;;;15.10;99.90;;;;;;5071769;28;20067;-81
2022/09/11 02:42:19;;;;;;;27.45;19.25;;;15.00;99.90;;;;;;5074336;28;20449;-79
2022/09/11 02:45:23;;;;;;;28.67;19.98;;;15.10;99.90;;;;;;5074307;28;20037;-79
2022/09/11 02:47:57;;;;;;;28.42;20.60;;;15.00;99.90;;;;;;5062988;28;20094;-79
2022/09/11 02:50:42;;;;;;;29.10;19.60;;;15.00;99.90;;;;;;5075548;28;20025;-80
2022/09/11 02:53:13;;;;;;;;;;;15.00;99.90;;;;;;5074469;28;20028;-81
2022/09/11 02:55:59;;;;;;;24.05;17.02;;;15.00;99.90;;;;;;5075185;28;19905;-80
2022/09/11 02:58:49;;;;;;;27.08;18.85;;;14.90;99.90;;;;;;5075256;28;20090;-80
2022/09/11 03:01:15;;;;;;;27.98;18.58;;;14.90;99.90;;;;;;5074071;28;20016;-80
2022/09/11 03:03:43;;;;;;;26.10;18.88;;;14.80;99.90;;;;;;5069445;28;20078;-80
2022/09/11 03:06:14;;;;;;;26.00;17.58;;;14.80;99.90;;;;;;5073905;28;20050;-80
2022/09/11 03:08:39;;;;;;;25.20;17.13;;;14.80;99.90;;;;;;5073942;28;20021;-80
2022/09/11 03:11:07;;;;;;;24.08;16.98;;;14.80;99.90;;;;;;5057227;28;20387;-81
2022/09/11 03:13:33;;;;;;;24.30;16.17;;;14.70;99.90;;;;;;5073669;28;20142;-81
2022/09/11 03:16:00;;;;;;;24.98;17.77;;;14.70;99.90;;;;;;5040538;28;20112;-81
2022/09/11 03:18:25;;;;;;;25.38;17.65;;;14.70;99.90;;;;;;5073723;28;20028;-80
2022/09/11 03:20:51;;;;;;;28.73;17.65;;;14.70;99.90;;;;;;5054513;28;20029;-80
2022/09/11 03:23:17;;;;;;;26.83;19.27;;;14.70;99.90;;;;;;5055297;28;20343;-80
2022/09/11 03:25:42;;;;;;;27.25;18.38;;;14.60;99.90;;;;;;5069890;28;20023;-80
2022/09/11 03:28:09;;;;;;;28.67;17.95;;;14.60;99.90;;;;;;5054938;28;20029;-81
2022/09/11 03:30:35;;;;;;;26.92;18.52;;;14.60;99.90;;;;;;5054772;28;20134;-80
2022/09/11 03:33:00;;;;;;;26.65;17.20;;;14.60;99.90;;;;;;5053451;28;20440;-80
2022/09/11 03:35:26;;;;;;;26.88;17.30;;;14.60;99.90;;;;;;5069933;28;20029;-80
2022/09/11 03:37:54;;;;;;;26.63;18.13;;;14.60;99.90;;;;;;5070262;28;20021;-80
2022/09/11 03:40:20;;;;;;;28.83;18.98;;;14.60;99.90;;;;;;5056379;28;20111;-80
2022/09/11 03:42:46;;;;;;;29.40;19.20;;;14.60;99.90;;;;;;5073129;28;20017;-80
2022/09/11 03:45:13;;;;;;;29.13;18.80;;;14.60;99.90;;;;;;5056528;28;20021;-81
2022/09/11 03:47:39;;;;;;;26.63;18.27;;;14.50;99.90;;;;;;5073035;28;20047;-82
2022/09/11 03:50:06;;;;;;;25.13;16.98;;;14.60;99.90;;;;;;5056538;28;20036;-81
2022/09/11 03:52:32;;;;;;;23.70;17.13;;;14.60;99.90;;;;;;5073304;28;20116;-81
2022/09/11 03:54:59;;;;;;;24.92;16.65;;;14.50;99.90;;;;;;5072990;28;20064;-81
2022/09/11 03:57:25;;;;;;;24.60;16.27;;;14.50;99.90;;;;;;5056348;28;20049;-81
2022/09/11 03:59:50;;;;;;;29.90;17.95;;;14.50;99.90;;;;;;5056135;28;20059;-81
2022/09/11 04:02:17;;;;;;;27.02;18.67;;;14.60;99.90;;;;;;5052453;28;20025;-81
2022/09/11 04:04:43;;;;;;;39.33;18.75;;;14.60;99.90;;;;;;5050402;28;20035;-79
2022/09/11 04:07:08;;;;;;;24.98;16.30;;;14.50;99.90;;;;;;5070036;28;20107;-79
2022/09/11 04:09:34;;;;;;;29.42;17.83;;;14.50;99.90;;;;;;5056154;28;20640;-80
2022/09/11 04:12:01;;;;;;;35.75;17.75;;;14.50;99.90;;;;;;5039399;28;20495;-79
2022/09/11 04:14:27;;;;;;;51.47;16.88;;;14.50;99.90;;;;;;5073962;28;20027;-80
2022/09/11 04:16:53;;;;;;;47.50;18.48;;;14.60;99.90;;;;;;5072533;28;20017;-80
2022/09/11 04:19:20;;;;;;;33.30;17.02;;;14.50;99.90;;;;;;5056439;28;20059;-80
2022/09/11 04:21:46;;;;;;;81.63;17.38;;;14.50;99.90;;;;;;5055931;28;20074;-80
2022/09/11 04:24:12;;;;;;;52.67;17.48;;;14.60;99.90;;;;;;5072485;28;20111;-80
2022/09/11 04:26:38;;;;;;;29.70;15.95;;;14.60;99.90;;;;;;5066937;28;20197;-80
2022/09/11 04:29:03;;;;;;;41.45;16.52;;;14.50;99.90;;;;;;5050287;28;20499;-79
2022/09/11 04:31:29;;;;;;;40.00;16.38;;;14.50;99.90;;;;;;5035775;28;20017;-80
2022/09/11 04:33:55;;;;;;;59.70;17.92;;;14.50;99.90;;;;;;5051896;28;20504;-80
2022/09/11 04:36:23;;;;;;;45.05;15.77;;;14.50;99.90;;;;;;5052265;28;20100;-80
2022/09/11 04:38:54;;;;;;;59.53;15.95;;;14.60;99.90;;;;;;5019917;28;20381;-80
2022/09/11 04:41:20;;;;;;;57.13;17.02;;;14.50;99.90;;;;;;5052030;28;20112;-79
2022/09/11 04:43:46;;;;;;;56.67;17.35;;;14.50;99.90;;;;;;5052375;28;20567;-80
2022/09/11 04:46:14;;;;;;;76.57;18.15;;;14.50;99.90;;;;;;5052161;28;20543;-80
2022/09/11 04:48:47;;;;;;;61.53;17.33;;;14.50;99.90;;;;;;5052050;28;20032;-79
2022/09/11 04:51:22;;;;;;;72.75;17.15;;;14.50;99.90;;;;;;5052473;28;20025;-79
2022/09/11 04:53:50;;;;;;;64.18;15.13;;;14.40;99.90;;;;;;5051901;28;20496;-80
2022/09/11 04:56:16;;;;;;;64.07;17.15;;;14.40;99.90;;;;;;5051808;28;20021;-80
2022/09/11 04:58:43;;;;;;;64.25;15.60;;;14.40;99.90;;;;;;5051758;28;20053;-80
2022/09/11 05:01:14;;;;;;;54.45;15.88;;;14.40;99.90;;;;;;5052000;28;20066;-80
2022/09/11 05:03:42;;;;;;;34.72;15.60;;;14.40;99.90;;;;;;5035171;28;20025;-80
2022/09/11 05:06:09;;;;;;;71.38;15.93;;;14.30;99.90;;;;;;5019808;28;20571;-80
2022/09/11 05:08:35;;;;;;;37.40;15.55;;;14.30;99.90;;;;;;5052097;28;20032;-80
2022/09/11 05:11:01;;;;;;;34.05;14.98;;;14.30;99.90;;;;;;5051916;28;20107;-80
2022/09/11 05:13:30;;;;;;;45.63;14.52;;;14.30;99.90;;;;;;5051880;28;20448;-79
2022/09/11 05:16:02;;;;;;;25.13;14.35;;;14.30;99.90;;;;;;5036018;28;20061;-80
2022/09/11 05:18:28;;;;;;;50.05;14.13;;;14.30;99.90;;;;;;5053164;28;20603;-80
2022/09/11 05:21:12;;;;;;;107.63;13.50;;;14.30;99.90;;;;;;5038946;28;20040;-80
2022/09/11 05:23:38;;;;;;;;;;;14.30;99.90;;;;;;5056286;28;20496;-80
2022/09/11 05:26:05;;;;;;;37.95;10.65;;;14.30;99.90;;;;;;5039231;28;19909;-80
2022/09/11 05:28:31;;;;;;;20.80;11.15;;;14.30;99.90;;;;;;5039429;28;20048;-80
2022/09/11 05:30:58;;;;;;;18.77;12.15;;;14.30;99.90;;;;;;5039384;28;20059;-80
2022/09/11 05:33:25;;;;;;;20.08;12.00;;;14.30;99.90;;;;;;5023005;28;20075;-80
2022/09/11 05:36:02;;;;;;;16.23;10.73;;;14.20;99.90;;;;;;5064447;28;20092;-80
2022/09/11 05:38:28;;;;;;;16.70;12.13;;;14.30;99.90;;;;;;5055561;28;20017;-80
2022/09/11 05:40:54;;;;;;;16.70;11.32;;;14.30;99.90;;;;;;5069623;28;20044;-80
2022/09/11 05:43:20;;;;;;;20.48;12.48;;;14.30;99.90;;;;;;5052880;28;20052;-80
2022/09/11 05:45:55;;;;;;;19.17;11.10;;;14.20;99.90;;;;;;5038823;28;20032;-80
2022/09/11 05:48:21;;;;;;;19.73;10.95;;;14.20;99.90;;;;;;5055461;28;20467;-79
2022/09/11 05:50:54;;;;;;;16.83;10.27;;;14.30;99.90;;;;;;5039114;28;20028;-80
2022/09/11 05:53:20;;;;;;;24.70;10.60;;;14.30;99.90;;;;;;5055340;28;20029;-80
2022/09/11 05:55:46;;;;;;;21.00;10.95;;;14.30;99.90;;;;;;5055229;28;20025;-80
2022/09/11 05:58:13;;;;;;;32.05;11.25;;;14.20;99.90;;;;;;5054954;28;20109;-80
2022/09/11 06:00:39;;;;;;;26.58;11.45;;;14.30;99.90;;;;;;5022198;28;20029;-79
2022/09/11 06:03:06;;;;;;;29.10;10.50;;;14.20;99.90;;;;;;5070304;28;20028;-80
2022/09/11 06:05:32;;;;;;;28.65;10.73;;;14.30;99.90;;;;;;5075187;28;20024;-80
2022/09/11 06:08:00;;;;;;;19.55;10.52;;;14.30;99.90;;;;;;5057289;28;20042;-81
2022/09/11 06:10:26;;;;;;;15.93;10.20;;;14.30;99.90;;;;;;5071879;28;20480;-81
2022/09/11 06:12:52;;;;;;;14.02;10.13;;;14.20;99.90;;;;;;5068963;28;20107;-82
2022/09/11 06:15:17;;;;;;;14.00;10.02;;;14.30;99.90;;;;;;5057319;28;20115;-81
2022/09/11 06:17:43;;;;;;;14.30;8.57;;;14.30;99.90;;;;;;5061366;28;20055;-81
2022/09/11 06:20:11;;;;;;;14.05;9.60;;;14.30;99.90;;;;;;5063465;28;20028;-81
2022/09/11 06:22:37;;;;;;;12.88;9.23;;;14.30;99.90;;;;;;5062968;28;20555;-81
2022/09/11 06:25:03;;;;;;;15.75;10.57;;;14.30;99.90;;;;;;5057431;28;20025;-81
2022/09/11 06:27:29;;;;;;;14.10;9.82;;;14.40;99.90;;;;;;5054319;28;20504;-81
2022/09/11 06:29:55;;;;;;;12.23;9.48;;;14.40;99.90;;;;;;5054032;28;20060;-81
2022/09/11 06:32:21;;;;;;;14.73;10.88;;;14.40;99.90;;;;;;5055406;28;20025;-81
2022/09/11 06:34:46;;;;;;;13.98;10.07;;;14.40;99.90;;;;;;5037542;28;20065;-81
2022/09/11 06:37:12;;;;;;;12.90;9.32;;;14.50;99.90;;;;;;5055372;28;20033;-81
2022/09/11 06:39:38;;;;;;;15.55;10.88;;;14.50;99.90;;;;;;5037674;28;20397;-81
2022/09/11 06:42:05;;;;;;;14.82;10.32;;;14.50;99.90;;;;;;5054234;28;20013;-81
2022/09/11 06:44:30;;;;;;;16.98;11.45;;;14.50;99.90;;;;;;5037776;28;20029;-81
2022/09/11 06:46:56;;;;;;;17.58;10.80;;;14.50;99.90;;;;;;5054019;28;20047;-81
2022/09/11 06:49:22;;;;;;;21.60;10.98;;;14.50;99.90;;;;;;5054002;28;20025;-81
2022/09/11 06:51:48;;;;;;;14.32;10.80;;;14.60;99.90;;;;;;5063918;28;20384;-82
2022/09/11 06:54:14;;;;;;;14.15;10.25;;;14.60;99.90;;;;;;5068879;28;20474;-82
2022/09/11 06:56:40;;;;;;;16.83;10.50;;;14.70;99.90;;;;;;5056128;28;20370;-82
2022/09/11 06:59:07;;;;;;;21.83;10.73;;;14.70;99.90;;;;;;5036739;28;20052;-82
2022/09/11 07:01:32;;;;;;;14.77;10.55;;;14.80;99.90;;;;;;5055124;28;20025;-82
2022/09/11 07:03:58;;;;;;;17.60;11.15;;;14.80;99.90;;;;;;5037058;28;20021;-82
2022/09/11 07:06:26;;;;;;;28.45;11.55;;;14.90;99.90;;;;;;5054933;28;20021;-82
2022/09/11 07:08:55;;;;;;;15.52;11.50;;;15.00;99.90;;;;;;5054946;28;20381;-82
2022/09/11 07:11:21;;;;;;;19.85;12.60;;;15.00;99.90;;;;;;5053613;28;20025;-81
2022/09/11 07:13:47;;;;;;;17.15;12.23;;;15.10;99.90;;;;;;5053845;28;20025;-81
2022/09/11 07:16:13;;;;;;;17.35;13.07;;;15.20;99.90;;;;;;5053598;28;20477;-82
2022/09/11 07:18:41;;;;;;;18.67;11.98;;;15.30;99.90;;;;;;5055263;28;20363;-82
2022/09/11 07:21:20;;;;;;;15.70;11.60;;;15.40;99.90;;;;;;5053466;28;20425;-82
2022/09/11 07:23:48;;;;;;;16.20;12.13;;;15.50;99.90;;;;;;5054858;28;20418;-83
2022/09/11 07:26:14;;;;;;;21.38;12.93;;;15.60;99.90;;;;;;5053155;28;20056;-84
2022/09/11 07:28:40;;;;;;;18.90;13.10;;;15.60;99.90;;;;;;5036597;28;20473;-83
2022/09/11 07:31:18;;;;;;;20.95;13.80;;;15.60;99.90;;;;;;5053450;28;20033;-84
2022/09/11 07:33:45;;;;;;;19.92;14.40;;;15.70;99.90;;;;;;5053404;28;20017;-84
2022/09/11 07:36:13;;;;;;;19.85;14.48;;;15.70;99.90;;;;;;5053236;28;20083;-82
2022/09/11 07:38:49;;;;;;;20.20;15.32;;;15.80;99.90;;;;;;5053104;28;20027;-84
2022/09/11 07:41:16;;;;;;;19.92;15.00;;;15.90;99.90;;;;;;5053806;28;20107;-83
2022/09/11 07:43:47;;;;;;;30.58;15.05;;;16.00;99.90;;;;;;5050214;28;20075;-81
2022/09/11 07:46:13;;;;;;;26.02;15.27;;;16.10;99.90;;;;;;5053606;28;20435;-83
2022/09/11 07:48:41;;;;;;;24.98;16.38;;;16.20;99.90;;;;;;5052531;28;20344;-82
2022/09/11 07:51:17;;;;;;;19.52;14.75;;;16.30;99.90;;;;;;5050565;28;20020;-82
2022/09/11 07:53:45;;;;;;;24.65;15.40;;;16.50;99.90;;;;;;5052163;28;20025;-83
2022/09/11 07:56:17;;;;;;;20.40;14.68;;;16.60;99.90;;;;;;5056863;28;20068;-82
2022/09/11 07:58:46;;;;;;;21.50;16.95;;;16.70;99.90;;;;;;5071923;28;20049;-82
2022/09/11 08:01:15;;;;;;;19.55;14.70;;;16.90;99.90;;;;;;5072275;28;20169;-83
2022/09/11 08:03:42;;;;;;;19.45;15.93;;;17.00;99.90;;;;;;5074218;28;20031;-86
2022/09/11 08:06:16;;;;;;;18.25;15.32;;;17.10;99.90;;;;;;5072942;28;20028;-85
2022/09/11 08:08:43;;;;;;;21.45;15.63;;;17.30;99.90;;;;;;5072845;28;20075;-86
2022/09/11 08:11:11;;;;;;;19.10;14.68;;;17.30;99.90;;;;;;5039895;28;20070;-85
2022/09/11 08:13:37;;;;;;;20.50;16.60;;;17.40;99.90;;;;;;5072959;28;20039;-85
2022/09/11 08:16:04;;;;;;;19.23;15.55;;;17.40;99.90;;;;;;5072896;28;20029;-85
2022/09/11 08:18:32;;;;;;;18.13;14.77;;;17.50;99.90;;;;;;5072673;28;20033;-86
2022/09/11 08:21:04;;;;;;;18.52;14.95;;;17.50;99.90;;;;;;5072572;28;20029;-86
2022/09/11 08:23:32;;;;;;;19.27;15.63;;;17.70;99.90;;;;;;5072452;28;20103;-85
2022/09/11 08:26:05;;;;;;;20.02;15.98;;;17.70;99.90;;;;;;5072500;28;20039;-86
2022/09/11 08:28:36;;;;;;;20.38;15.85;;;17.80;99.90;;;;;;5055872;28;20034;-87
2022/09/11 08:31:05;;;;;;;17.13;14.65;;;17.90;99.90;;;;;;5072678;28;20028;-86
2022/09/11 08:33:34;;;;;;;18.50;15.70;;;17.90;99.90;;;;;;5073767;28;20534;-85
2022/09/11 08:36:02;;;;;;;17.98;14.57;;;17.90;99.90;;;;;;5056359;28;20054;-84
2022/09/11 08:38:28;;;;;;;17.35;15.10;;;18.00;99.90;;;;;;5072356;28;20029;-86
2022/09/11 08:41:09;;;;;;;19.55;14.15;;;18.00;99.90;;;;;;5072784;28;20027;-87
2022/09/11 08:43:44;;;;;;;18.38;14.80;;;18.10;99.90;;;;;;5073581;28;20028;-85
2022/09/11 08:46:11;;;;;;;17.33;13.95;;;18.20;99.90;;;;;;5072377;28;20020;-85
2022/09/11 08:49:01;;;;;;;16.55;12.80;;;18.30;99.90;;;;;;5072112;28;20556;-86
2022/09/11 08:51:26;;;;;;;18.35;14.55;;;18.50;99.90;;;;;;5072544;28;20024;-85
2022/09/11 08:53:55;;;;;;;16.95;14.63;;;18.50;99.90;;;;;;5055410;28;20362;-85
2022/09/11 08:56:25;;;;;;;16.48;13.85;;;18.60;99.90;;;;;;5055627;28;20056;-86
2022/09/11 08:59:15;;;;;;;18.95;15.68;;;18.70;99.90;;;;;;5072388;28;20040;-85
2022/09/11 09:02:02;;;;;;;18.08;15.45;;;18.80;99.90;;;;;;5072347;28;20025;-84
2022/09/11 09:04:58;;;;;;;17.30;14.88;;;19.00;99.90;;;;;;5073360;28;20082;-86
2022/09/11 09:07:35;;;;;;;16.40;13.25;;;19.10;99.90;;;;;;5071742;28;20024;-86
2022/09/11 09:10:06;;;;;;;17.20;14.35;;;19.30;99.90;;;;;;5073655;28;20035;-85
2022/09/11 09:12:52;;;;;;;18.80;15.88;;;19.40;99.90;;;;;;5072134;28;20021;-85
2022/09/11 09:15:49;;;;;;;20.40;15.90;;;19.50;99.90;;;;;;5072264;28;20477;-84
2022/09/11 09:18:30;;;;;;;19.50;16.58;;;19.50;99.90;;;;;;5071993;28;20025;-85
2022/09/11 09:21:05;;;;;;;19.23;16.20;;;19.50;99.90;;;;;;5071746;28;20473;-86
2022/09/11 09:23:43;;;;;;;18.52;14.68;;;19.50;99.90;;;;;;5073373;28;20044;-85
2022/09/11 09:26:17;;;;;;;16.60;14.70;;;19.60;99.90;;;;;;5071827;28;20491;-85
2022/09/11 09:28:45;;;;;;;;;;;19.60;99.90;;;;;;5072277;28;20054;-85
2022/09/11 09:31:16;;;;;;;14.35;11.90;;;19.70;99.90;;;;;;5071756;28;20327;-85
2022/09/11 09:33:57;;;;;;;16.77;13.93;;;19.70;99.90;;;;;;5071792;28;20048;-85
2022/09/11 09:36:32;;;;;;;15.90;13.50;;;19.80;99.90;;;;;;5072023;28;20024;-85
2022/09/11 09:38:58;;;;;;;15.43;12.55;;;19.80;99.80;;;;;;5071804;28;20025;-86
2022/09/11 09:41:42;;;;;;;12.38;10.73;;;19.90;99.50;;;;;;5072135;28;20028;-84
2022/09/11 09:44:31;;;;;;;;;;;19.90;99.10;;;;;;5072283;28;20024;-84
2022/09/11 09:47:02;;;;;;;12.90;9.60;;;20.10;98.60;;;;;;5062065;28;19911;-85
2022/09/11 09:49:35;;;;;;;14.02;10.60;;;20.10;98.60;;;;;;5071713;28;20021;-84
2022/09/11 09:52:29;;;;;;;14.98;12.18;;;20.20;98.20;;;;;;5071629;28;20024;-83
2022/09/11 09:55:03;;;;;;;;;;;20.30;98.00;;;;;;5071429;28;20040;-83
2022/09/11 09:57:33;;;;;;;7.88;6.40;;;20.40;97.60;;;;;;5071299;28;19912;-84
2022/09/11 10:00:08;;;;;;;9.25;7.65;;;20.40;97.60;;;;;;5071679;28;20040;-86
2022/09/11 10:02:48;;;;;;;8.48;6.00;;;20.60;97.10;;;;;;5071573;28;20107;-84
2022/09/11 10:05:19;;;;;;;9.60;6.03;;;20.80;96.70;;;;;;5072810;28;20082;-83
2022/09/11 10:07:51;;;;;;;6.78;5.25;;;21.00;96.10;;;;;;5076584;28;20028;-83
2022/09/11 10:10:35;;;;;;;7.18;4.97;;;21.30;95.60;;;;;;5075220;28;20017;-84
2022/09/11 10:13:25;;;;;;;5.40;3.72;;;21.80;95.20;;;;;;5074981;28;20060;-84
2022/09/11 10:15:53;;;;;;;5.85;3.28;;;22.40;94.80;;;;;;5075034;28;20377;-84
2022/09/11 10:18:45;;;;;;;6.32;2.92;;;23.10;95.30;;;;;;5074823;28;20058;-84
2022/09/11 10:21:10;;;;;;;5.28;2.60;;;23.80;93.70;;;;;;5076107;28;20028;-85
2022/09/11 10:23:44;;;;;;;4.57;2.78;;;24.40;93.60;;;;;;5074778;28;20396;-85
2022/09/11 10:26:17;;;;;;;;;;;24.60;91.70;;;;;;5075278;28;20021;-85
2022/09/11 10:28:44;;;;;;;4.10;2.23;;;24.60;90.60;;;;;;5074599;28;19912;-85
2022/09/11 10:31:15;;;;;;;3.83;2.05;;;24.60;90.20;;;;;;5057867;28;20683;-85
2022/09/11 10:33:54;;;;;;;2.83;1.77;;;24.40;86.90;;;;;;5074832;28;20016;-84
2022/09/11 10:36:28;;;;;;;4.63;3.10;;;24.30;84.10;;;;;;5074826;28;20473;-84
2022/09/11 10:38:58;;;;;;;4.13;2.65;;;24.20;82.40;;;;;;5074300;28;20020;-85
2022/09/11 10:41:26;;;;;;;5.35;3.20;;;24.10;81.60;;;;;;5074782;28;20070;-84
2022/09/11 10:44:00;;;;;;;4.80;3.40;;;24.10;80.90;;;;;;5074315;28;20108;-85
2022/09/11 10:46:31;;;;;;;6.43;3.65;;;24.10;80.50;;;;;;5075759;28;20373;-83
2022/09/11 10:49:04;;;;;;;6.20;2.95;;;24.50;80.60;;;;;;5075517;28;20024;-85
2022/09/11 10:51:40;;;;;;;7.28;3.25;;;25.10;80.00;;;;;;5075728;28;20048;-86
2022/09/11 10:54:15;;;;;;;5.10;2.67;;;25.30;79.20;;;;;;5074677;28;20024;-86
2022/09/11 10:57:12;;;;;;;5.75;2.22;;;25.90;78.20;;;;;;5074241;28;20047;-86
2022/09/11 11:00:13;;;;;;;3.50;1.85;;;26.80;77.20;;;;;;5075539;28;20170;-86
2022/09/11 11:02:44;;;;;;;3.33;1.88;;;27.70;75.50;;;;;;5074645;28;20017;-86
2022/09/11 11:05:23;;;;;;;4.50;2.17;;;28.70;74.50;;;;;;5073884;28;20021;-86
2022/09/11 11:08:21;;;;;;;3.78;2.60;;;29.20;69.80;;;;;;5069817;28;20077;-88
2022/09/11 11:10:52;;;;;;;5.32;2.63;;;29.80;66.90;;;;;;5054881;28;20473;-87
2022/09/11 11:13:27;;;;;;;4.28;1.95;;;30.50;65.20;;;;;;5054586;28;20511;-85
2022/09/11 11:16:13;;;;;;;6.35;2.25;;;31.20;63.00;;;;;;5053626;28;20020;-87
2022/09/11 11:19:09;;;;;;;3.35;2.13;;;31.70;62.30;;;;;;5052859;28;20025;-88
2022/09/11 11:22:20;;;;;;;3.13;2.20;;;32.20;59.20;;;;;;5053833;28;20029;-88
2022/09/11 11:25:13;;;;;;;6.30;2.45;;;32.60;57.80;;;;;;5053008;28;20021;-87
2022/09/11 11:27:42;;;;;;;3.13;1.75;;;33.20;55.90;;;;;;5054447;28;20028;-85
2022/09/11 11:30:14;;;;;;;3.63;2.50;;;33.50;55.40;;;;;;5052990;28;20028;-84
2022/09/11 11:32:50;;;;;;;;;;;33.50;53.80;;;;;;5054924;28;20021;-83
2022/09/11 11:35:22;;;;;;;6.70;3.00;;;33.30;54.10;;;;;;5053048;28;19904;-86
2022/09/11 11:37:52;;;;;;;3.47;2.42;;;33.30;54.00;;;;;;5054533;28;20033;-84
2022/09/11 11:40:35;;;;;;;3.53;2.13;;;33.20;53.30;;;;;;5053033;28;20029;-84
2022/09/11 11:43:09;;;;;;;4.57;2.42;;;33.40;52.60;;;;;;5052890;28;20555;-84
2022/09/11 11:45:43;;;;;;;3.47;2.00;;;33.70;51.70;;;;;;5053257;28;20033;-86
2022/09/11 11:48:24;;;;;;;4.10;2.35;;;34.00;51.20;;;;;;5052990;28;20056;-85
2022/09/11 11:50:52;;;;;;;3.67;2.00;;;34.20;50.40;;;;;;5052854;28;20025;-87
2022/09/11 11:53:28;;;;;;;4.35;2.97;;;34.40;50.10;;;;;;5052858;28;20032;-84
2022/09/11 11:56:13;;;;;;;3.35;2.47;;;34.80;49.10;;;;;;5053073;28;20021;-85
2022/09/11 11:58:57;;;;;;;3.40;1.70;;;35.00;48.40;;;;;;5052895;28;20049;-88
2022/09/11 12:01:38;;;;;;;3.15;1.77;;;35.20;47.70;;;;;;5052517;28;20028;-84
2022/09/11 12:04:30;;;;;;;3.72;1.80;;;35.40;47.40;;;;;;5052722;28;20020;-87
2022/09/11 12:06:57;;;;;;;3.83;1.95;;;35.70;46.50;;;;;;5052739;28;20029;-86
2022/09/11 12:09:23;;;;;;;4.47;2.28;;;36.00;46.40;;;;;;5052610;28;20036;-86
2022/09/11 12:11:51;;;;;;;4.68;2.00;;;36.10;45.60;;;;;;5052443;28;20029;-85
2022/09/11 12:14:32;;;;;;;4.38;2.15;;;36.20;45.60;;;;;;5052543;28;20013;-84
2022/09/11 12:17:24;;;;;;;3.83;2.30;;;36.50;44.70;;;;;;5036027;28;20021;-85
2022/09/11 12:20:15;;;;;;;2.67;1.60;;;36.50;44.30;;;;;;5052912;28;20081;-87
2022/09/11 12:22:48;;;;;;;3.97;1.90;;;36.70;44.40;;;;;;5052347;28;20033;-87
2022/09/11 12:25:20;;;;;;;3.42;1.60;;;36.80;44.30;;;;;;5052788;28;20025;-89
2022/09/11 12:27:47;;;;;;;6.20;1.40;;;36.70;44.10;;;;;;5052050;28;20024;-87
2022/09/11 12:30:16;;;;;;;2.88;1.73;;;36.50;43.70;;;;;;5052636;28;20025;-87
2022/09/11 12:32:56;;;;;;;2.75;1.52;;;36.00;42.80;;;;;;5052251;28;20021;-86
2022/09/11 12:35:44;;;;;;;3.80;1.98;;;35.30;43.00;;;;;;5052098;28;20025;-85
2022/09/11 12:38:19;;;;;;;3.47;2.08;;;34.50;44.20;;;;;;5052486;28;20021;-85
2022/09/11 12:40:55;;;;;;;4.63;2.08;;;34.20;44.50;;;;;;5052101;28;20021;-84
2022/09/11 12:43:45;;;;;;;3.92;2.05;;;34.00;44.20;;;;;;5052036;28;20024;-83
2022/09/11 12:46:20;;;;;;;4.25;1.92;;;33.40;44.50;;;;;;5052147;28;20048;-84
2022/09/11 12:49:09;;;;;;;3.80;1.80;;;32.90;45.00;;;;;;5051641;28;20079;-85
2022/09/11 12:51:41;;;;;;;2.80;1.50;;;32.40;45.50;;;;;;5053030;28;20043;-84
2022/09/11 12:54:38;;;;;;;3.53;1.85;;;31.90;46.50;;;;;;5052034;28;20370;-83
2022/09/11 12:57:14;;;;;;;4.53;3.03;;;31.40;47.20;;;;;;5051442;28;20136;-83
2022/09/11 12:59:45;;;;;;;5.53;2.35;;;31.00;48.00;;;;;;5051881;28;20049;-85